Time;durP1;ratioP1;P1;durP2;ratioP2;P2;SDS_P1;SDS_P2;PMS_P1;PMS_P2;Temp;Humidity;BMP_temperature;BMP_pressure;BME280_temperature;BME280_humidity;BME280_pressure;Samples;Min_cycle;Max_cycle;Signal;HPM_P1;HPM_P2
2023/03/08 00:00:11;;;;;;;;;;;;;;;;;;5071456;28;19912;-80
2023/03/08 00:02:36;;;;;;;;;;;;;;;;;;5066964;28;20403;-80
2023/03/08 00:05:02;;;;;;;;;;;;;;;;;;5070654;28;19924;-80
2023/03/08 00:07:27;;;;;;;;;;;;;;;;;;5073393;28;19916;-79
2023/03/08 00:09:52;;;;;;;;;;;;;;;;;;5055436;28;20369;-79
2023/03/08 00:12:18;;;;;;;;;;;;;;;;;;5070006;28;19974;-79
2023/03/08 00:14:44;;;;;;;;;;;;;;;;;;5057143;28;20235;-78
2023/03/08 00:17:11;;;;;;;;;;;;;;;;;;5067499;28;19920;-79
2023/03/08 00:19:36;;;;;;;;;;;;;;;;;;5057537;28;20395;-78
2023/03/08 00:22:01;;;;;;;;;;;;;;;;;;5068167;28;19935;-79
2023/03/08 00:24:27;;;;;;;;;;;;;;;;;;5071943;28;19920;-80
2023/03/08 00:26:52;;;;;;;;;;;;;;;;;;5058381;28;19923;-79
2023/03/08 00:29:17;;;;;;;;;;;;;;;;;;5066344;28;19913;-79
2023/03/08 00:31:42;;;;;;;;;;;;;;;;;;5056021;28;19962;-79
2023/03/08 00:34:07;;;;;;;;;;;;;;;;;;5071930;28;19936;-80
2023/03/08 00:36:32;;;;;;;;;;;;;;;;;;5065322;28;19919;-78
2023/03/08 00:38:57;;;;;;;;;;;;;;;;;;5066869;28;19954;-79
2023/03/08 00:41:22;;;;;;;;;;;;;;;;;;5060545;28;20007;-79
2023/03/08 00:43:48;;;;;;;;;;;;;;;;;;5055993;28;19924;-78
2023/03/08 00:46:13;;;;;;;;;;;;;;;;;;5057321;28;19973;-78
2023/03/08 00:48:38;;;;;;;;;;;;;;;;;;5065395;28;19948;-78
2023/03/08 00:51:03;;;;;;;;;;;;;;;;;;5072538;28;20057;-78
2023/03/08 00:53:28;;;;;;;;;;;;;;;;;;5069835;28;20376;-79
2023/03/08 00:55:53;;;;;;;;;;;;;;;;;;5058526;28;19917;-78
2023/03/08 00:58:18;;;;;;;;;;;;;;;;;;5058742;28;20396;-78
2023/03/08 01:00:44;;;;;;;;;;;;;;;;;;5065059;28;20384;-78
2023/03/08 01:03:09;;;;;;;;;;;;;;;;;;5066205;28;19999;-78
2023/03/08 01:05:34;;;;;;;;;;;;;;;;;;5071546;28;20376;-78
2023/03/08 01:08:01;;;;;;;;;;;;;;;;;;5064291;28;20284;-79
2023/03/08 01:10:26;;;;;;;;;;;;;;;;;;5068392;28;19964;-79
2023/03/08 01:12:51;;;;;;;;;;;;;;;;;;5059144;28;19921;-79
2023/03/08 01:15:17;;;;;;;;;;;;;;;;;;5065981;28;20398;-79
2023/03/08 01:17:42;;;;;;;;;;;;;;;;;;5064730;28;19917;-79
2023/03/08 01:20:07;;;;;;;;;;;;;;;;;;5072003;28;20433;-78
2023/03/08 01:22:32;;;;;;;;;;;;;;;;;;5064556;28;19921;-78
2023/03/08 01:24:57;;;;;;;;;;;;;;;;;;5070583;28;19917;-79
2023/03/08 01:27:22;;;;;;;;;;;;;;;;;;5070382;28;19912;-79
2023/03/08 01:29:48;;;;;;;;;;;;;;;;;;5059437;28;19924;-79
2023/03/08 01:32:13;;;;;;;;;;;;;;;;;;5058938;28;19919;-79
2023/03/08 01:34:38;;;;;;;;;;;;;;;;;;5071796;28;20273;-79
2023/03/08 01:37:03;;;;;;;;;;;;;;;;;;5069846;28;20392;-79
2023/03/08 01:39:28;;;;;;;;;;;;;;;;;;5065494;28;19916;-79
2023/03/08 01:41:53;;;;;;;;;;;;;;;;;;5059079;28;19913;-79
2023/03/08 01:44:18;;;;;;;;;;;;;;;;;;5063402;28;19925;-79
2023/03/08 01:46:44;;;;;;;;;;;;;;;;;;5060399;28;19917;-79
2023/03/08 01:49:09;;;;;;;;;;;;;;;;;;5061380;28;19923;-79
2023/03/08 01:51:34;;;;;;;;;;;;;;;;;;5059674;28;19920;-79
2023/03/08 01:53:59;;;;;;;;;;;;;;;;;;5052757;28;20113;-79
2023/03/08 01:56:24;;;;;;;;;;;;;;;;;;5056447;28;19920;-79
2023/03/08 01:58:49;;;;;;;;;;;;;;;;;;5073206;28;19938;-79
2023/03/08 02:01:14;;;;;;;;;;;;;;;;;;5068060;28;20907;-79
2023/03/08 02:03:40;;;;;;;;;;;;;;;;;;5064900;28;20318;-80
2023/03/08 02:06:05;;;;;;;;;;;;;;;;;;5065329;28;20373;-79
2023/03/08 02:08:30;;;;;;;;;;;;;;;;;;5070258;28;19924;-80
2023/03/08 02:10:55;;;;;;;;;;;;;;;;;;5065393;28;19920;-79
2023/03/08 02:13:20;;;;;;;;;;;;;;;;;;5053388;28;20414;-78
2023/03/08 02:15:45;;;;;;;;;;;;;;;;;;5058238;28;19983;-79
2023/03/08 02:18:10;;;;;;;;;;;;;;;;;;5064286;28;19938;-78
2023/03/08 02:20:36;;;;;;;;;;;;;;;;;;5061021;28;19953;-78
2023/03/08 02:23:01;;;;;;;;;;;;;;;;;;5070313;28;19919;-78
2023/03/08 02:25:26;;;;;;;;;;;;;;;;;;5069377;28;19956;-78
2023/03/08 02:27:51;;;;;;;;;;;;;;;;;;5058737;28;19916;-78
2023/03/08 02:30:16;;;;;;;;;;;;;;;;;;5065645;28;20276;-78
2023/03/08 02:32:41;;;;;;;;;;;;;;;;;;5055602;28;19913;-78
2023/03/08 02:35:06;;;;;;;;;;;;;;;;;;5063946;28;20003;-78
2023/03/08 02:37:31;;;;;;;;;;;;;;;;;;5070143;28;19912;-79
2023/03/08 02:39:57;;;;;;;;;;;;;;;;;;5062202;28;19917;-79
2023/03/08 02:42:22;;;;;;;;;;;;;;;;;;5058796;28;19920;-79
2023/03/08 02:44:47;;;;;;;;;;;;;;;;;;5062156;28;19919;-79
2023/03/08 02:47:12;;;;;;;;;;;;;;;;;;5069313;28;19920;-79
2023/03/08 02:49:37;;;;;;;;;;;;;;;;;;5058249;28;19920;-79
2023/03/08 02:52:02;;;;;;;;;;;;;;;;;;5061843;28;19954;-79
2023/03/08 02:54:27;;;;;;;;;;;;;;;;;;5059534;28;19984;-79
2023/03/08 02:56:53;;;;;;;;;;;;;;;;;;5068035;28;19916;-79
2023/03/08 02:59:18;;;;;;;;;;;;;;;;;;5052797;28;20296;-79
2023/03/08 03:01:43;;;;;;;;;;;;;;;;;;5065080;28;19917;-79
2023/03/08 03:04:08;;;;;;;;;;;;;;;;;;5070927;28;19960;-79
2023/03/08 03:06:33;;;;;;;;;;;;;;;;;;5071241;28;20380;-79
2023/03/08 03:08:58;;;;;;;;;;;;;;;;;;5072422;28;20284;-79
2023/03/08 03:11:23;;;;;;;;;;;;;;;;;;5052215;28;19913;-79
2023/03/08 03:13:48;;;;;;;;;;;;;;;;;;5052267;28;20018;-79
2023/03/08 03:16:14;;;;;;;;;;;;;;;;;;5061533;28;20007;-79
2023/03/08 03:18:39;;;;;;;;;;;;;;;;;;5069075;28;19920;-79
2023/03/08 03:21:04;;;;;;;;;;;;;;;;;;5055727;28;20292;-79
2023/03/08 03:23:29;;;;;;;;;;;;;;;;;;5067311;28;20568;-78
2023/03/08 03:25:54;;;;;;;;;;;;;;;;;;5069745;28;19928;-78
2023/03/08 03:28:19;;;;;;;;;;;;;;;;;;5059999;28;20007;-78
2023/03/08 03:30:44;;;;;;;;;;;;;;;;;;5063560;28;19913;-78
2023/03/08 03:33:10;;;;;;;;;;;;;;;;;;5053366;28;19916;-78
2023/03/08 03:35:35;;;;;;;;;;;;;;;;;;5069209;28;19921;-78
2023/03/08 03:38:00;;;;;;;;;;;;;;;;;;5070036;28;19916;-79
2023/03/08 03:40:25;;;;;;;;;;;;;;;;;;5069380;28;19913;-79
2023/03/08 03:42:50;;;;;;;;;;;;;;;;;;5058794;28;19913;-79
2023/03/08 03:45:15;;;;;;;;;;;;;;;;;;5062015;28;19924;-78
2023/03/08 03:47:40;;;;;;;;;;;;;;;;;;5071342;28;20385;-79
2023/03/08 03:50:05;;;;;;;;;;;;;;;;;;5064151;28;19955;-79
2023/03/08 03:52:31;;;;;;;;;;;;;;;;;;5053898;28;19917;-79
2023/03/08 03:54:56;;;;;;;;;;;;;;;;;;5067884;28;20364;-79
2023/03/08 03:57:21;;;;;;;;;;;;;;;;;;5068933;28;19916;-79
2023/03/08 03:59:46;;;;;;;;;;;;;;;;;;5072149;28;20284;-79
2023/03/08 04:02:11;;;;;;;;;;;;;;;;;;5058852;28;19916;-78
2023/03/08 04:04:36;;;;;;;;;;;;;;;;;;5067938;28;20006;-78
2023/03/08 04:07:01;;;;;;;;;;;;;;;;;;5072022;28;19923;-78
2023/03/08 04:09:26;;;;;;;;;;;;;;;;;;5073432;28;19920;-78
2023/03/08 04:11:52;;;;;;;;;;;;;;;;;;5073998;28;20399;-78
2023/03/08 04:14:17;;;;;;;;;;;;;;;;;;5061146;28;20589;-78
2023/03/08 04:16:42;;;;;;;;;;;;;;;;;;5071424;28;20471;-78
2023/03/08 04:19:07;;;;;;;;;;;;;;;;;;5064993;28;19918;-79
2023/03/08 04:21:32;;;;;;;;;;;;;;;;;;5072079;28;19916;-79
2023/03/08 04:23:57;;;;;;;;;;;;;;;;;;5070862;28;20374;-79
2023/03/08 04:26:23;;;;;;;;;;;;;;;;;;5059203;28;20427;-79
2023/03/08 04:28:48;;;;;;;;;;;;;;;;;;5058837;28;19961;-79
2023/03/08 04:31:13;;;;;;;;;;;;;;;;;;5063462;28;20380;-79
2023/03/08 04:33:38;;;;;;;;;;;;;;;;;;5066890;28;19934;-79
2023/03/08 04:36:03;;;;;;;;;;;;;;;;;;5066681;28;19917;-79
2023/03/08 04:38:28;;;;;;;;;;;;;;;;;;5053244;28;20007;-79
2023/03/08 04:41:10;;;;;;;;;;;;;;;;;;5072420;28;19912;-78
2023/03/08 04:43:35;;;;;;;;;;;;;;;;;;5065700;28;19912;-79
2023/03/08 04:46:01;;;;;;;;;;;;;;;;;;5065275;28;19974;-78
2023/03/08 04:48:26;;;;;;;;;;;;;;;;;;5064713;28;20281;-79
2023/03/08 04:50:51;;;;;;;;;;;;;;;;;;5076522;28;20361;-79
2023/03/08 04:53:16;;;;;;;;;;;;;;;;;;5060264;28;19913;-79
2023/03/08 04:55:41;;;;;;;;;;;;;;;;;;5071611;28;19912;-79
2023/03/08 04:58:06;;;;;;;;;;;;;;;;;;5068794;28;19918;-79
2023/03/08 05:00:31;;;;;;;;;;;;;;;;;;5065866;28;19909;-79
2023/03/08 05:02:56;;;;;;;;;;;;;;;;;;5063274;28;19916;-79
2023/03/08 05:05:22;;;;;;;;;;;;;;;;;;5064764;28;19920;-80
2023/03/08 05:07:47;;;;;;;;;;;;;;;;;;5063673;28;20007;-79
2023/03/08 05:10:12;;;;;;;;;;;;;;;;;;5061284;28;19935;-79
2023/03/08 05:12:37;;;;;;;;;;;;;;;;;;5065064;28;20332;-79
2023/03/08 05:15:02;;;;;;;;;;;;;;;;;;5061831;28;19913;-79
2023/03/08 05:17:27;;;;;;;;;;;;;;;;;;5056018;28;19938;-79
2023/03/08 05:19:52;;;;;;;;;;;;;;;;;;5055924;28;19913;-80
2023/03/08 05:22:18;;;;;;;;;;;;;;;;;;5061569;28;19967;-79
2023/03/08 05:24:43;;;;;;;;;;;;;;;;;;5063078;28;19916;-78
2023/03/08 05:27:08;;;;;;;;;;;;;;;;;;5052215;28;19948;-80
2023/03/08 05:29:33;;;;;;;;;;;;;;;;;;5064729;28;19999;-81
2023/03/08 05:31:59;;;;;;;;;;;;;;;;;;5064581;28;19916;-77
2023/03/08 05:34:24;;;;;;;;;;;;;;;;;;5068249;28;19921;-77
2023/03/08 05:36:50;;;;;;;;;;;;;;;;;;5072204;28;19916;-77
2023/03/08 05:39:15;;;;;;;;;;;;;;;;;;5064197;28;20011;-78
2023/03/08 05:41:40;;;;;;;;;;;;;;;;;;5059844;28;19920;-80
2023/03/08 05:44:05;;;;;;;;;;;;;;;;;;5062606;28;19913;-80
2023/03/08 05:46:30;;;;;;;;;;;;;;;;;;5061428;28;20454;-78
2023/03/08 05:48:55;;;;;;;;;;;;;;;;;;5058184;28;19912;-80
2023/03/08 05:51:20;;;;;;;;;;;;;;;;;;5062373;28;19912;-80
2023/03/08 05:53:45;;;;;;;;;;;;;;;;;;5060350;28;20012;-77
2023/03/08 05:56:11;;;;;;;;;;;;;;;;;;5063047;28;20309;-79
2023/03/08 05:58:36;;;;;;;;;;;;;;;;;;5069143;28;19912;-81
2023/03/08 06:01:01;;;;;;;;;;;;;;;;;;5060257;28;20438;-79
2023/03/08 06:03:26;;;;;;;;;;;;;;;;;;5062799;28;20323;-80
2023/03/08 06:05:51;;;;;;;;;;;;;;;;;;5061539;28;19916;-79
2023/03/08 06:08:16;;;;;;;;;;;;;;;;;;5070763;28;20007;-79
2023/03/08 06:10:45;;;;;;;;;;;;;;;;;;5055223;28;20357;-80
2023/03/08 06:13:10;;;;;;;;;;;;;;;;;;5063680;28;19995;-80
2023/03/08 06:15:35;;;;;;;;;;;;;;;;;;5057274;28;19921;-79
2023/03/08 06:18:00;;;;;;;;;;;;;;;;;;5065050;28;19958;-79
2023/03/08 06:20:25;;;;;;;;;;;;;;;;;;5069646;28;20019;-78
2023/03/08 06:22:50;;;;;;;;;;;;;;;;;;5060299;28;19977;-76
2023/03/08 06:25:19;;;;;;;;;;;;;;;;;;5063680;28;20368;-76
2023/03/08 06:27:44;;;;;;;;;;;;;;;;;;5062413;28;19952;-76
2023/03/08 06:30:09;;;;;;;;;;;;;;;;;;5070750;28;19912;-76
2023/03/08 06:32:36;;;;;;;;;;;;;;;;;;5065460;28;19912;-75
2023/03/08 06:35:01;;;;;;;;;;;;;;;;;;5067220;28;19920;-78
2023/03/08 06:37:26;;;;;;;;;;;;;;;;;;5050783;28;20047;-78
2023/03/08 06:39:51;;;;;;;;;;;;;;;;;;5070108;28;19916;-78
2023/03/08 06:42:16;;;;;;;;;;;;;;;;;;5066729;28;19913;-78
2023/03/08 06:44:42;;;;;;;;;;;;;;;;;;5056960;28;19917;-78
2023/03/08 06:47:07;;;;;;;;;;;;;;;;;;5051485;28;19920;-77
2023/03/08 06:49:32;;;;;;;;;;;;;;;;;;5056098;28;19912;-77
2023/03/08 06:51:57;;;;;;;;;;;;;;;;;;5062049;28;19912;-78
2023/03/08 06:54:23;;;;;;;;;;;;;;;;;;5069369;28;19913;-77
2023/03/08 06:56:48;;;;;;;;;;;;;;;;;;5055182;28;19923;-77
2023/03/08 06:59:13;;;;;;;;;;;;;;;;;;5051530;28;20435;-77
2023/03/08 07:01:38;;;;;;;;;;;;;;;;;;5053240;28;19956;-77
2023/03/08 07:04:03;;;;;;;;;;;;;;;;;;5060537;28;19913;-78
2023/03/08 07:06:28;;;;;;;;;;;;;;;;;;5065493;28;19924;-78
2023/03/08 07:08:54;;;;;;;;;;;;;;;;;;5069375;28;20318;-78
2023/03/08 07:11:19;;;;;;;;;;;;;;;;;;5064109;28;20538;-78
2023/03/08 07:13:44;;;;;;;;;;;;;;;;;;5053495;28;20768;-79
2023/03/08 07:16:09;;;;;;;;;;;;;;;;;;5053107;28;19909;-77
2023/03/08 07:18:34;;;;;;;;;;;;;;;;;;5051929;28;19913;-78
2023/03/08 07:20:59;;;;;;;;;;;;;;;;;;5052205;28;20046;-78
2023/03/08 07:23:24;;;;;;;;;;;;;;;;;;5052134;28;19967;-78
2023/03/08 07:25:50;;;;;;;;;;;;;;;;;;5052426;28;19916;-78
2023/03/08 07:28:15;;;;;;;;;;;;;;;;;;5052066;28;19909;-78
2023/03/08 07:30:40;;;;;;;;;;;;;;;;;;5056539;28;20391;-78
2023/03/08 07:33:05;;;;;;;;;;;;;;;;;;5070713;28;19908;-77
2023/03/08 07:35:30;;;;;;;;;;;;;;;;;;5064421;28;19927;-78
2023/03/08 07:37:55;;;;;;;;;;;;;;;;;;5055752;28;19909;-77
2023/03/08 07:40:20;;;;;;;;;;;;;;;;;;5053995;28;19913;-77
2023/03/08 07:42:45;;;;;;;;;;;;;;;;;;5055716;28;19909;-77
2023/03/08 07:45:11;;;;;;;;;;;;;;;;;;5059240;28;19913;-76
2023/03/08 07:47:36;;;;;;;;;;;;;;;;;;5058682;28;19912;-78
2023/03/08 07:50:01;;;;;;;;;;;;;;;;;;5062288;28;19912;-76
2023/03/08 07:52:26;;;;;;;;;;;;;;;;;;5065981;28;19960;-77
2023/03/08 07:54:51;;;;;;;;;;;;;;;;;;5053303;28;19995;-78
2023/03/08 07:57:16;;;;;;;;;;;;;;;;;;5054961;28;19909;-78
2023/03/08 07:59:42;;;;;;;;;;;;;;;;;;5054045;28;20392;-79
2023/03/08 08:02:07;;;;;;;;;;;;;;;;;;5053618;28;19916;-79
2023/03/08 08:04:32;;;;;;;;;;;;;;;;;;5056776;28;19916;-78
2023/03/08 08:06:59;;;;;;;;;;;;;;;;;;5066608;28;19916;-78
2023/03/08 08:09:24;;;;;;;;;;;;;;;;;;5060953;28;20316;-78
2023/03/08 08:11:49;;;;;;;;;;;;;;;;;;5072665;28;19923;-78
2023/03/08 08:14:14;;;;;;;;;;;;;;;;;;5062430;28;20320;-78
2023/03/08 08:16:39;;;;;;;;;;;;;;;;;;5062030;28;19913;-77
2023/03/08 08:19:05;;;;;;;;;;;;;;;;;;5058445;28;19913;-77
2023/03/08 08:21:30;;;;;;;;;;;;;;;;;;5069916;28;20381;-76
2023/03/08 08:23:56;;;;;;;;;;;;;;;;;;5057821;28;19913;-77
2023/03/08 08:26:21;;;;;;;;;;;;;;;;;;5070886;28;19962;-76
2023/03/08 08:28:47;;;;;;;;;;;;;;;;;;5058829;28;19916;-77
2023/03/08 08:31:12;;;;;;;;;;;;;;;;;;5064066;28;19998;-77
2023/03/08 08:33:37;;;;;;;;;;;;;;;;;;5055382;28;19932;-77
2023/03/08 08:36:02;;;;;;;;;;;;;;;;;;5066314;28;19916;-77
2023/03/08 08:38:28;;;;;;;;;;;;;;;;;;5068326;28;19917;-77
2023/03/08 08:40:53;;;;;;;;;;;;;;;;;;5071422;28;20081;-77
2023/03/08 08:43:18;;;;;;;;;;;;;;;;;;5065179;28;19912;-78
2023/03/08 08:45:43;;;;;;;;;;;;;;;;;;5056294;28;19917;-77
2023/03/08 08:48:08;;;;;;;;;;;;;;;;;;5066283;28;19917;-77
2023/03/08 08:50:33;;;;;;;;;;;;;;;;;;5064940;28;21504;-77
2023/03/08 08:52:58;;;;;;;;;;;;;;;;;;5060754;28;19923;-77
2023/03/08 08:55:23;;;;;;;;;;;;;;;;;;5071522;28;19912;-78
2023/03/08 08:57:49;;;;;;;;;;;;;;;;;;5063568;28;19920;-77
2023/03/08 09:00:14;;;;;;;;;;;;;;;;;;5065577;28;19912;-78
2023/03/08 09:02:39;;;;;;;;;;;;;;;;;;5060342;28;20280;-78
2023/03/08 09:05:04;;;;;;;;;;;;;;;;;;5070264;28;19913;-78
2023/03/08 09:07:29;;;;;;;;;;;;;;;;;;5059531;28;19913;-77
2023/03/08 09:09:54;;;;;;;;;;;;;;;;;;5064046;28;19920;-77
2023/03/08 09:12:20;;;;;;;;;;;;;;;;;;5057581;28;19912;-78
2023/03/08 09:14:45;;;;;;;;;;;;;;;;;;5061017;28;19912;-78
2023/03/08 09:17:10;;;;;;;;;;;;;;;;;;5056838;28;19919;-77
2023/03/08 09:19:35;;;;;;;;;;;;;;;;;;5067821;28;20008;-77
2023/03/08 09:22:00;;;;;;;;;;;;;;;;;;5067805;28;19913;-77
2023/03/08 09:24:25;;;;;;;;;;;;;;;;;;5069812;28;20399;-78
2023/03/08 09:26:50;;;;;;;;;;;;;;;;;;5058629;28;19917;-78
2023/03/08 09:29:15;;;;;;;;;;;;;;;;;;5072259;28;19916;-78
2023/03/08 09:31:42;;;;;;;;;;;;;;;;;;5063300;28;21255;-78
2023/03/08 09:34:07;;;;;;;;;;;;;;;;;;5062838;28;19916;-78
2023/03/08 09:36:32;;;;;;;;;;;;;;;;;;5064195;28;19924;-78
2023/03/08 09:38:57;;;;;;;;;;;;;;;;;;5054137;28;20063;-78
2023/03/08 09:41:26;;;;;;;;;;;;;;;;;;5061771;28;19923;-77
2023/03/08 09:43:51;;;;;;;;;;;;;;;;;;5053510;28;19920;-78
2023/03/08 09:46:16;;;;;;;;;;;;;;;;;;5058921;28;19916;-78
2023/03/08 09:48:43;;;;;;;;;;;;;;;;;;5063861;28;20277;-78
2023/03/08 09:51:08;;;;;;;;;;;;;;;;;;5072531;28;19917;-79
2023/03/08 09:53:33;;;;;;;;;;;;;;;;;;5065476;28;19908;-78
2023/03/08 09:55:58;;;;;;;;;;;;;;;;;;5069376;28;19924;-79
2023/03/08 09:58:23;;;;;;;;;;;;;;;;;;5062157;28;20010;-79
2023/03/08 10:00:49;;;;;;;;;;;;;;;;;;5067123;28;19920;-79
2023/03/08 10:03:14;;;;;;;;;;;;;;;;;;5066558;28;19913;-79
2023/03/08 10:05:39;;;;;;;;;;;;;;;;;;5072194;28;20261;-79
2023/03/08 10:08:04;;;;;;;;;;;;;;;;;;5071524;28;20361;-79
2023/03/08 10:10:29;;;;;;;;;;;;;;;;;;5072152;28;19952;-79
2023/03/08 10:12:54;;;;;;;;;;;;;;;;;;5060746;28;20653;-79
2023/03/08 10:15:19;;;;;;;;;;;;;;;;;;5053172;28;19947;-78
2023/03/08 10:17:45;;;;;;;;;;;;;;;;;;5066593;28;19912;-78
2023/03/08 10:20:10;;;;;;;;;;;;;;;;;;5071458;28;19947;-79
2023/03/08 10:22:38;;;;;;;;;;;;;;;;;;5061948;28;19916;-79
2023/03/08 10:25:03;;;;;;;;;;;;;;;;;;5064631;28;20296;-79
2023/03/08 10:27:28;;;;;;;;;;;;;;;;;;5072805;28;19913;-79
2023/03/08 10:29:53;;;;;;;;;;;;;;;;;;5071155;28;19909;-79
2023/03/08 10:32:18;;;;;;;;;;;;;;;;;;5051896;28;19908;-78
2023/03/08 10:34:43;;;;;;;;;;;;;;;;;;5056258;28;19927;-78
2023/03/08 10:37:09;;;;;;;;;;;;;;;;;;5063322;28;19913;-76
2023/03/08 10:39:34;;;;;;;;;;;;;;;;;;5069573;28;19936;-77
2023/03/08 10:41:59;;;;;;;;;;;;;;;;;;5068532;28;19913;-77
2023/03/08 10:44:24;;;;;;;;;;;;;;;;;;5053091;28;19917;-77
2023/03/08 10:46:49;;;;;;;;;;;;;;;;;;5054180;28;19917;-77
2023/03/08 10:49:14;;;;;;;;;;;;;;;;;;5068338;28;19955;-77
2023/03/08 10:51:40;;;;;;;;;;;;;;;;;;5056906;28;19924;-77
2023/03/08 10:54:06;;;;;;;;;;;;;;;;;;5057736;28;19920;-78
2023/03/08 10:56:31;;;;;;;;;;;;;;;;;;5065901;28;19944;-78
2023/03/08 10:58:56;;;;;;;;;;;;;;;;;;5058958;28;19962;-78
2023/03/08 11:01:21;;;;;;;;;;;;;;;;;;5056728;28;19912;-78
2023/03/08 11:03:46;;;;;;;;;;;;;;;;;;5066406;28;19913;-77
2023/03/08 11:06:11;;;;;;;;;;;;;;;;;;5060755;28;19924;-77
2023/03/08 11:08:36;;;;;;;;;;;;;;;;;;5064491;28;19956;-78
2023/03/08 11:11:02;;;;;;;;;;;;;;;;;;5068581;28;19935;-78
2023/03/08 11:13:27;;;;;;;;;;;;;;;;;;5059227;28;20015;-77
2023/03/08 11:15:52;;;;;;;;;;;;;;;;;;5058998;28;19923;-78
2023/03/08 11:18:17;;;;;;;;;;;;;;;;;;5064160;28;19962;-79
2023/03/08 11:20:44;;;;;;;;;;;;;;;;;;5075108;28;19908;-77
2023/03/08 11:23:09;;;;;;;;;;;;;;;;;;5073047;28;19912;-77
2023/03/08 11:25:34;;;;;;;;;;;;;;;;;;5060210;28;19923;-77
2023/03/08 11:27:59;;;;;;;;;;;;;;;;;;5070733;28;19912;-76
2023/03/08 11:30:24;;;;;;;;;;;;;;;;;;5057641;28;19923;-78
2023/03/08 11:32:50;;;;;;;;;;;;;;;;;;5065361;28;19920;-78
2023/03/08 11:35:15;;;;;;;;;;;;;;;;;;5067177;28;20007;-77
2023/03/08 11:37:41;;;;;;;;;;;;;;;;;;5063657;28;19924;-78
2023/03/08 11:40:06;;;;;;;;;;;;;;;;;;5074081;28;20365;-77
2023/03/08 11:42:32;;;;;;;;;;;;;;;;;;5072733;28;19923;-77
2023/03/08 11:44:57;;;;;;;;;;;;;;;;;;5052731;28;20357;-78
2023/03/08 11:47:22;;;;;;;;;;;;;;;;;;5053785;28;19962;-77
2023/03/08 11:49:48;;;;;;;;;;;;;;;;;;5064119;28;19998;-79
2023/03/08 11:52:13;;;;;;;;;;;;;;;;;;5063147;28;19913;-78
2023/03/08 11:54:38;;;;;;;;;;;;;;;;;;5060351;28;19912;-78
2023/03/08 11:57:03;;;;;;;;;;;;;;;;;;5070216;28;19924;-78
2023/03/08 11:59:28;;;;;;;;;;;;;;;;;;5061445;28;20407;-78
2023/03/08 12:01:53;;;;;;;;;;;;;;;;;;5055364;28;19920;-77
2023/03/08 12:04:18;;;;;;;;;;;;;;;;;;5059455;28;19959;-78
2023/03/08 12:06:44;;;;;;;;;;;;;;;;;;5056641;28;20027;-78
2023/03/08 12:09:09;;;;;;;;;;;;;;;;;;5071920;28;19917;-78
2023/03/08 12:11:34;;;;;;;;;;;;;;;;;;5072137;28;19912;-78
2023/03/08 12:13:59;;;;;;;;;;;;;;;;;;5057205;28;19913;-82
2023/03/08 12:16:24;;;;;;;;;;;;;;;;;;5067312;28;19920;-82
2023/03/08 12:18:49;;;;;;;;;;;;;;;;;;5067186;28;19908;-83
2023/03/08 12:21:15;;;;;;;;;;;;;;;;;;5054689;28;20327;-82
2023/03/08 12:23:40;;;;;;;;;;;;;;;;;;5066595;28;20285;-83
2023/03/08 12:26:05;;;;;;;;;;;;;;;;;;5066358;28;20399;-83
2023/03/08 12:28:30;;;;;;;;;;;;;;;;;;5065640;28;19912;-84
2023/03/08 12:30:55;;;;;;;;;;;;;;;;;;5074305;28;20070;-84
2023/03/08 12:33:20;;;;;;;;;;;;;;;;;;5067073;28;20331;-85
2023/03/08 12:35:45;;;;;;;;;;;;;;;;;;5058389;28;20297;-83
2023/03/08 12:38:11;;;;;;;;;;;;;;;;;;5059572;28;19913;-83
2023/03/08 12:40:36;;;;;;;;;;;;;;;;;;5062029;28;19913;-83
2023/03/08 12:43:01;;;;;;;;;;;;;;;;;;5052869;28;19919;-83
2023/03/08 12:45:29;;;;;;;;;;;;;;;;;;5063651;28;20017;-82
2023/03/08 12:47:55;;;;;;;;;;;;;;;;;;5067929;28;20372;-81
2023/03/08 12:50:20;;;;;;;;;;;;;;;;;;5068833;28;19909;-81
2023/03/08 12:52:45;;;;;;;;;;;;;;;;;;5062161;28;19955;-81
2023/03/08 12:55:12;;;;;;;;;;;;;;;;;;5052504;28;19913;-82
2023/03/08 12:57:41;;;;;;;;;;;;;;;;;;5063184;28;19908;-81
2023/03/08 13:00:09;;;;;;;;;;;;;;;;;;5070676;28;19959;-83
2023/03/08 13:02:34;;;;;;;;;;;;;;;;;;5062029;28;19955;-83
2023/03/08 13:04:59;;;;;;;;;;;;;;;;;;5054282;28;19909;-84
2023/03/08 13:07:24;;;;;;;;;;;;;;;;;;5061176;28;19917;-84
2023/03/08 13:09:50;;;;;;;;;;;;;;;;;;5062837;28;19915;-83
2023/03/08 13:12:15;;;;;;;;;;;;;;;;;;5062463;28;19913;-83
2023/03/08 13:14:40;;;;;;;;;;;;;;;;;;5058507;28;20358;-83
2023/03/08 13:17:05;;;;;;;;;;;;;;;;;;5059508;28;19948;-82
2023/03/08 13:19:30;;;;;;;;;;;;;;;;;;5054707;28;19919;-82
2023/03/08 13:21:55;;;;;;;;;;;;;;;;;;5052962;28;19912;-83
2023/03/08 13:24:20;;;;;;;;;;;;;;;;;;5064968;28;19928;-84
2023/03/08 13:26:46;;;;;;;;;;;;;;;;;;5065959;28;19981;-84
2023/03/08 13:29:11;;;;;;;;;;;;;;;;;;5070505;28;19912;-83
2023/03/08 13:31:36;;;;;;;;;;;;;;;;;;5064624;28;19909;-82
2023/03/08 13:34:01;;;;;;;;;;;;;;;;;;5065316;28;20373;-83
2023/03/08 13:36:26;;;;;;;;;;;;;;;;;;5055785;28;20373;-82
2023/03/08 13:38:51;;;;;;;;;;;;;;;;;;5057282;28;19923;-82
2023/03/08 13:41:17;;;;;;;;;;;;;;;;;;5065867;28;19917;-82
2023/03/08 13:43:42;;;;;;;;;;;;;;;;;;5061791;28;20007;-83
2023/03/08 13:46:07;;;;;;;;;;;;;;;;;;5053086;28;19917;-82
2023/03/08 13:48:33;;;;;;;;;;;;;;;;;;5053295;28;20387;-83
2023/03/08 13:50:58;;;;;;;;;;;;;;;;;;5068576;28;19955;-82
2023/03/08 13:53:24;;;;;;;;;;;;;;;;;;5063767;28;19948;-82
2023/03/08 13:55:49;;;;;;;;;;;;;;;;;;5070347;28;19948;-82
2023/03/08 13:58:14;;;;;;;;;;;;;;;;;;5061709;28;19913;-82
2023/03/08 14:00:39;;;;;;;;;;;;;;;;;;5058408;28;19951;-82
2023/03/08 14:03:07;;;;;;;;;;;;;;;;;;5061116;28;20373;-82
2023/03/08 14:05:33;;;;;;;;;;;;;;;;;;5069945;28;19920;-81
2023/03/08 14:07:58;;;;;;;;;;;;;;;;;;5065382;28;20003;-81
2023/03/08 14:10:28;;;;;;;;;;;;;;;;;;5062322;28;19912;-81
2023/03/08 14:12:53;;;;;;;;;;;;;;;;;;5059222;28;19966;-82
2023/03/08 14:15:18;;;;;;;;;;;;;;;;;;5056726;28;19920;-83
2023/03/08 14:17:43;;;;;;;;;;;;;;;;;;5054818;28;19934;-81
2023/03/08 14:20:09;;;;;;;;;;;;;;;;;;5062997;28;20011;-83
2023/03/08 14:22:34;;;;;;;;;;;;;;;;;;5055324;28;19958;-86
2023/03/08 14:25:03;;;;;;;;;;;;;;;;;;5055394;28;19913;-85
2023/03/08 14:27:29;;;;;;;;;;;;;;;;;;5065017;28;19925;-85
2023/03/08 14:29:54;;;;;;;;;;;;;;;;;;5061381;28;20011;-82
2023/03/08 14:32:19;;;;;;;;;;;;;;;;;;5065519;28;19913;-82
2023/03/08 14:34:44;;;;;;;;;;;;;;;;;;5064641;28;19921;-81
2023/03/08 14:37:12;;;;;;;;;;;;;;;;;;5051001;28;20324;-83
2023/03/08 14:39:37;;;;;;;;;;;;;;;;;;5059636;28;19916;-83
2023/03/08 14:42:02;;;;;;;;;;;;;;;;;;5053344;28;19935;-83
2023/03/08 14:44:28;;;;;;;;;;;;;;;;;;5061234;28;19919;-83
2023/03/08 14:46:59;;;;;;;;;;;;;;;;;;5054346;28;19916;-82
2023/03/08 14:49:24;;;;;;;;;;;;;;;;;;5060389;28;20013;-83
2023/03/08 14:51:49;;;;;;;;;;;;;;;;;;5054623;28;19917;-85
2023/03/08 14:54:14;;;;;;;;;;;;;;;;;;5066620;28;19912;-84
2023/03/08 14:56:41;;;;;;;;;;;;;;;;;;5050427;28;19912;-84
2023/03/08 14:59:06;;;;;;;;;;;;;;;;;;5066144;28;19913;-85
2023/03/08 15:01:31;;;;;;;;;;;;;;;;;;5056473;28;19913;-87
2023/03/08 15:03:59;;;;;;;;;;;;;;;;;;5055563;28;20160;-86
2023/03/08 15:06:24;;;;;;;;;;;;;;;;;;5054390;28;19924;-83
2023/03/08 15:08:49;;;;;;;;;;;;;;;;;;5052481;28;19912;-84
2023/03/08 15:11:14;;;;;;;;;;;;;;;;;;5054487;28;19995;-84
2023/03/08 15:13:40;;;;;;;;;;;;;;;;;;5061167;28;19917;-85
2023/03/08 15:16:05;;;;;;;;;;;;;;;;;;5054992;28;19918;-85
2023/03/08 15:18:30;;;;;;;;;;;;;;;;;;5060640;28;19908;-86
2023/03/08 15:20:55;;;;;;;;;;;;;;;;;;5055930;28;19927;-86
2023/03/08 15:23:21;;;;;;;;;;;;;;;;;;5064113;28;19974;-86
2023/03/08 15:25:46;;;;;;;;;;;;;;;;;;5064214;28;19931;-86
2023/03/08 15:28:11;;;;;;;;;;;;;;;;;;5058541;28;19909;-86
2023/03/08 15:30:36;;;;;;;;;;;;;;;;;;5065574;28;19970;-85
2023/03/08 15:33:04;;;;;;;;;;;;;;;;;;5056849;28;19935;-86
2023/03/08 15:35:29;;;;;;;;;;;;;;;;;;5068253;28;19920;-86
2023/03/08 15:37:55;;;;;;;;;;;;;;;;;;5064111;28;20447;-85
2023/03/08 15:40:20;;;;;;;;;;;;;;;;;;5060699;28;20391;-86
2023/03/08 15:42:45;;;;;;;;;;;;;;;;;;5057101;28;19912;-84
2023/03/08 15:45:10;;;;;;;;;;;;;;;;;;5052105;28;19932;-84
2023/03/08 15:47:36;;;;;;;;;;;;;;;;;;5056981;28;19924;-84
2023/03/08 15:50:01;;;;;;;;;;;;;;;;;;5061287;28;20253;-83
2023/03/08 15:52:26;;;;;;;;;;;;;;;;;;5059693;28;19913;-83
2023/03/08 15:54:51;;;;;;;;;;;;;;;;;;5061844;28;20448;-85
2023/03/08 15:57:16;;;;;;;;;;;;;;;;;;5070203;28;19909;-84
2023/03/08 15:59:41;;;;;;;;;;;;;;;;;;5061518;28;19913;-83
2023/03/08 16:02:07;;;;;;;;;;;;;;;;;;5062554;28;19956;-83
2023/03/08 16:04:32;;;;;;;;;;;;;;;;;;5065920;28;19920;-85
2023/03/08 16:06:57;;;;;;;;;;;;;;;;;;5061092;28;19925;-82
2023/03/08 16:09:22;;;;;;;;;;;;;;;;;;5065065;28;19913;-82
2023/03/08 16:11:47;;;;;;;;;;;;;;;;;;5059887;28;20411;-83
2023/03/08 16:14:16;;;;;;;;;;;;;;;;;;5060223;28;20117;-80
2023/03/08 16:16:41;;;;;;;;;;;;;;;;;;5063264;28;19917;-82
2023/03/08 16:19:06;;;;;;;;;;;;;;;;;;5064646;28;19919;-82
2023/03/08 16:21:31;;;;;;;;;;;;;;;;;;5069124;28;19987;-86
2023/03/08 16:23:58;;;;;;;;;;;;;;;;;;5060413;28;19919;-84
2023/03/08 16:26:24;;;;;;;;;;;;;;;;;;5063113;28;20400;-87
2023/03/08 16:28:49;;;;;;;;;;;;;;;;;;5061113;28;20418;-85
2023/03/08 16:31:14;;;;;;;;;;;;;;;;;;5064317;28;19909;-83